Latest Weather Observations for Clermont Airport

IDQ60801

Issued at 2:02 pm EST Monday 27 April 2015 (issued every 30 minutes, with the page automatically refreshed every 10 minutes)

About weather observations | Map of weather stations | Latest weather observations for QLD | Other Formats
Station Details ID: 035124 Name: CLERMONT AIRPORT Lat: -22.78 Lon: 147.62 Height: 270.27 m
Data from the previous 72 hours. | See also: Recent months at Clermont Airport
Date/Time
EST
Temp
°C
App
Temp
°C
Dew
Point
Rel
Hum
%
Delta-T
°C
Wind Press
QNH
hPa
Press
MSL
hPa
Rain
since 9 am
mm
Dir
 
Spd
km/h
Gust
km/h
Spd
kts
Gust
kts
27/02:00pm 24.8 21.2 0.3 20 11.5 S 9 17 5 9 1017.0 1015.8 0.0
27/01:30pm 24.1 20.5 0.4 21 11.0 S 9 19 5 10 1017.3 1016.1 0.0
27/01:00pm 23.7 20.1 0.7 22 10.7 S 9 24 5 13 1017.7 1016.5 0.0
27/12:30pm 23.7 19.8 1.4 23 10.6 SSE 11 19 6 10 1018.4 1017.1 0.0
27/12:00pm 23.3 19.7 2.7 26 10.0 ESE 11 22 6 12 1018.8 1017.5 0.0
27/11:30am 21.8 18.0 2.0 27 9.4 SE 11 20 6 11 1019.6 1018.4 0.0
27/11:00am 21.6 17.5 2.3 28 9.1 SSE 13 22 7 12 1020.2 1019.0 0.0
27/10:30am 20.8 17.1 2.6 30 8.6 SE 11 20 6 11 1020.7 1019.5 0.0
27/10:00am 20.0 15.5 2.4 31 8.2 SE 15 24 8 13 1021.1 1019.9 0.0
27/09:30am 19.3 14.9 2.6 33 7.8 SSE 15 24 8 13 1021.3 1020.1 0.0
27/09:00am 18.1 14.3 1.6 33 7.5 SSE 11 20 6 11 1021.2 1020.0 -
27/08:30am 16.2 13.4 1.9 38 6.4 SSE 6 9 3 5 1021.1 1019.9 -
27/08:00am 14.0 11.5 1.6 43 5.4 S 4 9 2 5 1021.0 1019.8 -
27/07:30am 10.3 8.5 0.9 52 3.9 CALM 0 0 0 0 1020.8 1019.6 -
27/07:00am 6.0 4.0 0.1 66 2.3 CALM 0 0 0 0 1020.4 1019.2 -
27/06:30am 4.4 1.6 -0.6 70 1.9 SW 4 6 2 3 1020.0 1018.8 -
27/06:00am 4.9 2.8 -0.7 67 2.1 CALM 0 0 0 0 1019.8 1018.6 -
27/05:30am 5.5 3.4 -1.0 63 2.5 CALM 0 0 0 0 1019.6 1018.4 -
27/05:00am 6.4 4.3 -0.8 60 2.8 CALM 0 0 0 0 1019.3 1018.1 -
27/04:30am 5.7 3.6 -1.0 62 2.5 CALM 0 0 0 0 1019.2 1018.0 -
27/04:00am 6.8 4.6 -1.8 54 3.2 CALM 0 4 0 2 1019.0 1017.7 -
27/03:30am 8.8 5.5 -1.3 49 3.9 S 6 6 3 3 1018.8 1017.5 -
27/03:00am 10.9 7.5 -0.5 45 4.6 S 7 9 4 5 1018.7 1017.4 0.0
27/02:30am 10.5 7.1 -0.3 47 4.4 S 7 9 4 5 1018.8 1017.5 -
27/02:00am 7.8 4.5 -1.2 53 3.5 S 6 6 3 3 1018.7 1017.4 -
27/01:30am 7.8 4.5 -1.2 53 3.5 S 6 6 3 3 1018.6 1017.3 -
27/01:00am 7.8 5.6 -1.4 52 3.5 CALM 0 0 0 0 1018.6 1017.3 -
27/12:30am 8.5 5.5 -1.6 49 3.9 SSW 4 6 2 3 1018.8 1017.5 -
27/12:00am 8.6 6.0 -1.8 48 4.0 SSW 2 4 1 2 1018.9 1017.6 -
 
Date/Time
EST
Temp
°C
App
Temp
°C
Dew
Point
Rel
Hum
%
Delta-T
°C
Wind Press
QNH
hPa
Press
MSL
hPa
Rain
since 9 am
mm
Dir
 
Spd
km/h
Gust
km/h
Spd
kts
Gust
kts
26/11:30pm 9.7 7.2 -1.3 46 4.3 SSW 2 2 1 1 1019.0 1017.7 -
26/11:00pm 9.5 6.5 -1.5 46 4.3 SSW 4 6 2 3 1019.0 1017.7 -
26/10:30pm 10.7 8.5 -1.7 42 4.9 CALM 0 2 0 1 1019.0 1017.7 -
26/10:00pm 10.2 7.2 -2.1 42 4.8 SSW 4 4 2 2 1019.0 1017.7 -
26/09:30pm 11.0 8.4 -1.7 41 5.0 SSW 2 2 1 1 1018.7 1017.4 -
26/09:00pm 11.6 8.6 -1.9 39 5.4 WSW 4 4 2 2 1018.4 1017.1 -
26/08:30pm 12.4 10.0 -3.0 34 6.0 CALM 0 6 0 3 1017.9 1016.7 -
26/08:00pm 13.5 10.7 -3.3 31 6.6 NNW 2 4 1 2 1017.7 1016.5 -
26/07:30pm 14.3 11.8 -3.9 28 7.1 CALM 0 0 0 0 1017.1 1015.9 -
26/07:27pm 14.5 12.0 -4.2 27 7.3 CALM 0 0 0 0 1017.1 1015.9 -
26/07:00pm 19.6 16.4 -3.9 20 9.7 S 4 4 2 2 1016.5 1015.3 -
26/06:30pm 21.6 18.0 -3.7 18 10.7 S 6 7 3 4 1015.8 1014.6 -
26/06:00pm 23.6 19.3 -4.5 15 11.9 SSE 9 13 5 7 1015.5 1014.2 -
26/05:30pm 25.1 20.5 -4.2 14 12.6 S 11 19 6 10 1015.1 1013.8 -
26/05:00pm 26.3 21.4 -3.3 14 13.1 SSE 13 19 7 10 1014.8 1013.5 -
26/04:30pm 27.2 21.9 -3.6 13 13.7 SSW 15 24 8 13 1014.6 1013.3 -
26/04:00pm 27.6 22.6 -4.3 12 14.0 SSW 13 20 7 11 1014.5 1013.2 -
26/03:30pm 27.1 21.8 -3.7 13 13.6 SSW 15 20 8 11 1014.5 1013.2 -
26/02:30pm 27.8 23.7 -3.1 13 13.9 SSW 9 22 5 12 1014.5 1013.2 -
26/02:00pm 27.3 22.2 -1.6 15 13.3 S 15 22 8 12 1014.6 1013.3 -
26/01:30pm 26.1 21.2 -0.8 17 12.5 S 15 26 8 14 1015.0 1013.7 -
26/01:00pm 26.0 20.8 -0.1 18 12.2 S 17 30 9 16 1015.3 1014.0 -
26/12:30pm 25.8 21.5 1.2 20 11.8 SSE 13 26 7 14 1015.8 1014.6 -
26/11:00am 23.4 18.5 2.3 25 10.1 SSW 17 30 9 16 1017.0 1015.8 0.0
26/10:30am 23.0 18.7 3.0 27 9.7 SSW 15 24 8 13 1017.2 1016.0 0.0
26/10:00am 20.9 15.7 2.7 30 8.6 S 19 26 10 14 1017.5 1016.3 0.0
26/09:30am 19.9 14.7 2.3 31 8.2 S 19 28 10 15 1017.8 1016.6 0.0
26/09:00am 18.6 13.3 2.0 33 7.6 SSE 19 28 10 15 1017.7 1016.5 0.0
26/08:30am 17.7 13.4 1.2 33 7.4 SSE 13 17 7 9 1017.6 1016.4 0.0
26/08:00am 15.8 13.9 0.8 36 6.6 CALM 0 0 0 0 1017.4 1016.2 0.0
26/07:30am 12.3 10.4 0.7 45 4.9 CALM 0 0 0 0 1017.1 1015.9 0.0
26/07:00am 8.9 7.1 1.1 58 3.2 CALM 0 0 0 0 1016.9 1015.7 0.0
26/06:30am 7.8 5.0 -0.4 56 3.2 SSW 4 7 2 4 1016.6 1015.4 0.0
26/06:00am 10.3 8.0 0.1 49 4.2 SE 2 4 1 2 1016.3 1015.1 0.0
26/05:30am 10.3 7.4 -1.1 45 4.6 SSW 4 6 2 3 1016.1 1014.9 0.0
26/05:00am 12.7 10.5 -1.2 38 5.7 CALM 0 0 0 0 1015.8 1014.6 0.0
26/04:30am 15.7 12.5 -0.5 33 6.9 SW 6 7 3 4 1015.6 1014.3 0.0
26/04:00am 16.5 12.8 -0.2 32 7.2 SW 9 13 5 7 1015.4 1014.1 0.0
26/03:30am 17.1 13.0 -0.1 31 7.5 SW 11 19 6 10 1015.2 1013.9 0.0
26/03:00am 17.9 12.8 0.6 31 7.7 SW 17 26 9 14 1015.1 1013.8 0.0
26/02:30am 18.6 13.9 0.7 30 8.0 SW 15 24 8 13 1014.8 1013.5 0.0
26/02:00am 19.1 14.0 0.7 29 8.3 SW 17 24 9 13 1014.9 1013.6 0.0
26/01:30am 19.8 14.7 0.8 28 8.6 SW 17 24 9 13 1014.8 1013.5 0.0
26/01:00am 20.0 15.7 1.0 28 8.7 WSW 13 20 7 11 1014.8 1013.5 0.0
26/12:30am 20.4 16.1 1.3 28 8.8 WSW 13 24 7 13 1014.8 1013.5 0.0
26/12:00am 20.7 16.5 1.6 28 8.9 WSW 13 20 7 11 1014.8 1013.5 0.0
 
Date/Time
EST
Temp
°C
App
Temp
°C
Dew
Point
Rel
Hum
%
Delta-T
°C
Wind Press
QNH
hPa
Press
MSL
hPa
Rain
since 9 am
mm
Dir
 
Spd
km/h
Gust
km/h
Spd
kts
Gust
kts
25/11:30pm 21.0 16.9 2.3 29 8.8 WSW 13 20 7 11 1014.7 1013.4 0.0
25/11:00pm 19.8 16.5 2.6 32 8.1 WSW 9 19 5 10 1014.7 1013.4 0.0
25/10:30pm 19.5 16.8 2.8 33 7.9 WSW 6 9 3 5 1014.7 1013.4 0.0
25/10:00pm 20.8 18.1 2.6 30 8.6 WSW 6 9 3 5 1014.7 1013.4 0.0
25/09:30pm 21.3 18.6 2.6 29 8.9 WSW 6 7 3 4 1014.7 1013.4 0.0
25/09:00pm 21.5 18.5 2.2 28 9.1 WSW 7 11 4 6 1014.7 1013.4 0.0
25/08:30pm 22.2 19.4 2.3 27 9.5 WSW 6 9 3 5 1014.5 1013.2 0.0
25/08:00pm 21.8 19.0 2.0 27 9.4 W 6 9 3 5 1014.0 1012.8 0.0
25/07:30pm 23.1 20.3 2.0 25 10.1 WSW 6 7 3 4 1013.4 1012.2 0.0
25/07:00pm 24.2 21.2 0.5 21 11.1 WSW 6 6 3 3 1012.9 1011.7 0.0
25/06:30pm 25.4 22.2 0.8 20 11.7 SW 7 11 4 6 1012.5 1011.3 0.0
25/06:00pm 26.6 23.3 0.4 18 12.5 SW 7 13 4 7 1012.1 1010.8 0.0
25/05:30pm 28.3 23.9 0.1 16 13.5 WSW 13 19 7 10 1011.5 1010.2 0.0
25/05:00pm 29.4 24.8 -0.9 14 14.4 WSW 13 20 7 11 1011.2 1009.9 0.0
25/04:30pm 30.3 25.5 -0.1 14 14.7 SW 15 22 8 12 1010.7 1009.4 0.0
25/04:00pm 30.5 25.9 -1.0 13 15.0 WSW 13 26 7 14 1010.3 1009.0 0.0
25/03:30pm 30.8 25.3 -1.9 12 15.4 W 17 26 9 14 1010.1 1008.9 0.0
25/03:00pm 31.1 26.3 -2.8 11 15.8 WSW 13 26 7 14 1010.1 1008.9 0.0
25/02:30pm 31.3 26.8 -0.4 13 15.4 SW 13 26 7 14 1010.0 1008.8 0.0
25/02:00pm 31.1 27.9 0.5 14 15.1 NW 7 22 4 12 1010.0 1008.8 0.0
25/01:30pm 31.5 28.5 1.8 15 15.0 E 7 17 4 9 1010.6 1009.3 0.0
25/01:00pm 30.5 27.0 1.0 15 14.6 W 9 20 5 11 1011.1 1009.8 0.0
25/12:30pm 30.3 27.6 2.5 17 14.1 SSE 6 13 3 7 1011.5 1010.2 0.0
25/12:00pm 29.3 25.9 1.7 17 13.7 SW 9 20 5 11 1012.0 1010.7 0.0
25/11:30am 28.4 24.7 2.6 19 12.9 S 11 19 6 10 1012.4 1011.1 0.0
25/11:00am 28.5 25.4 3.4 20 12.8 SSE 9 17 5 9 1012.8 1011.6 0.0
25/10:30am 27.6 24.4 3.3 21 12.2 S 9 17 5 9 1013.2 1012.0 0.0
25/10:00am 26.9 23.1 4.0 23 11.6 SSW 13 22 7 12 1013.4 1012.2 0.0
25/09:30am 25.0 22.5 4.7 27 10.3 SSE 7 15 4 8 1013.6 1012.4 0.0
25/09:00am 23.4 20.8 4.4 29 9.5 SSE 7 13 4 7 1013.6 1012.4 0.0
25/08:30am 21.2 20.1 5.1 35 8.0 CALM 0 0 0 0 1013.3 1012.1 0.0
25/08:00am 18.0 17.3 6.8 48 5.7 CALM 0 0 0 0 1013.2 1012.0 0.0
25/07:30am 14.7 13.9 6.5 58 4.0 CALM 0 2 0 1 1012.9 1011.7 0.0
25/07:00am 10.7 9.7 5.5 70 2.4 CALM 0 0 0 0 1012.5 1011.3 0.0
25/06:30am 9.9 8.8 4.9 71 2.3 CALM 0 0 0 0 1012.0 1010.7 0.0
25/06:00am 10.1 9.0 5.1 71 2.3 CALM 0 0 0 0 1011.7 1010.4 0.0
25/05:30am 10.4 9.3 5.2 70 2.4 CALM 0 0 0 0 1011.6 1010.3 0.0
25/05:00am 9.7 8.6 5.3 74 2.0 CALM 0 0 0 0 1011.4 1010.1 0.0
25/04:30am 10.4 9.3 5.0 69 2.5 CALM 0 0 0 0 1011.2 1009.9 0.0
25/04:00am 10.7 9.6 5.0 68 2.6 CALM 0 0 0 0 1011.2 1009.9 0.0
25/03:30am 10.8 9.7 4.9 67 2.7 CALM 0 0 0 0 1011.2 1009.9 0.0
25/03:00am 11.3 10.2 5.2 66 2.8 CALM 0 0 0 0 1011.3 1010.0 0.0
25/02:30am 11.5 10.4 5.2 65 2.9 CALM 0 0 0 0 1011.4 1010.1 0.0
25/02:00am 11.7 10.6 5.1 64 3.1 CALM 0 0 0 0 1011.4 1010.1 0.0
25/01:30am 11.9 10.8 5.1 63 3.2 CALM 0 0 0 0 1011.5 1010.2 0.0
25/01:00am 12.1 11.0 5.0 62 3.3 CALM 0 0 0 0 1011.7 1010.4 0.0
25/12:30am 12.8 11.7 5.2 60 3.6 CALM 0 0 0 0 1012.0 1010.7 0.0
25/12:00am 13.5 12.5 5.4 58 3.9 CALM 0 0 0 0 1012.0 1010.7 0.0
 
Date/Time
EST
Temp
°C
App
Temp
°C
Dew
Point
Rel
Hum
%
Delta-T
°C
Wind Press
QNH
hPa
Press
MSL
hPa
Rain
since 9 am
mm
Dir
 
Spd
km/h
Gust
km/h
Spd
kts
Gust
kts
24/11:30pm 14.0 13.0 5.6 57 4.0 CALM 0 0 0 0 1011.9 1010.6 0.0
24/11:00pm 14.0 13.0 5.4 56 4.1 CALM 0 0 0 0 1011.9 1010.6 0.0
24/10:30pm 15.1 14.1 5.6 53 4.6 CALM 0 0 0 0 1011.9 1010.6 0.0
24/10:00pm 15.1 14.1 5.6 53 4.6 CALM 0 0 0 0 1012.0 1010.7 0.0
24/09:30pm 16.2 14.8 5.5 49 5.2 NW 2 4 1 2 1012.0 1010.7 0.0
24/09:00pm 15.9 15.0 6.1 52 4.8 CALM 0 0 0 0 1012.0 1010.7 0.0
24/08:30pm 18.4 17.5 5.9 44 6.2 CALM 0 0 0 0 1011.6 1010.3 0.0
24/08:00pm 18.4 16.8 6.3 45 6.1 W 4 4 2 2 1011.4 1010.1 0.0
24/07:30pm 19.1 17.0 5.9 42 6.6 SW 6 6 3 3 1011.1 1009.8 0.0
24/07:00pm 21.5 20.1 5.4 35 8.1 SSW 2 6 1 3 1010.6 1009.3 0.0
24/06:30pm 22.1 21.1 5.5 34 8.4 CALM 0 0 0 0 1010.5 1009.2 0.0
24/06:00pm 25.9 24.5 5.5 27 10.6 SE 2 4 1 2 1010.0 1008.8 0.0
24/05:30pm 27.9 26.4 4.9 23 11.9 ESE 2 6 1 3 1009.7 1008.5 0.0
24/05:00pm 29.2 28.1 5.3 22 12.6 CALM 0 2 0 1 1009.4 1008.2 0.0
24/04:30pm 29.2 27.0 5.3 22 12.6 E 6 9 3 5 1009.1 1007.8 0.0
24/04:00pm 29.4 26.9 4.8 21 12.9 SE 7 11 4 6 1008.9 1007.6 0.0
24/03:30pm 29.4 26.7 5.5 22 12.6 E 9 17 5 9 1009.0 1007.7 0.0
24/03:00pm 30.0 27.5 4.6 20 13.3 SE 7 11 4 6 1009.2 1007.9 0.0
24/02:30pm 29.8 27.0 5.1 21 13.0 NNE 9 15 5 8 1009.4 1008.2 0.0

Other Formats:

Comma delimited format used in spreadsheet applications
http://www.bom.gov.au/fwo/IDQ60801/IDQ60801.94395.axf

JavaScript Object Notation format (JSON) in row-major order
http://www.bom.gov.au/fwo/IDQ60801/IDQ60801.94395.json